Time;durP1;ratioP1;P1;durP2;ratioP2;P2;SDS_P1;SDS_P2;PMS_P1;PMS_P2;Temp;Humidity;BMP_temperature;BMP_pressure;BME280_temperature;BME280_humidity;BME280_pressure;Samples;Min_cycle;Max_cycle;Signal;HPM_P1;HPM_P2
2021/05/06 00:33:56;;;;;;;19.02;2.35;;;4.50;99.90;;;;;;5064694;28;20897;-73
2021/05/06 00:36:22;;;;;;;3.58;0.95;;;4.50;99.90;;;;;;5064823;28;20025;-73
2021/05/06 00:38:51;;;;;;;5.57;0.80;;;4.50;99.90;;;;;;5063467;28;20041;-73
2021/05/06 00:44:17;;;;;;;13.32;0.85;;;4.40;99.90;;;;;;5064751;28;20035;-72
2021/05/06 01:00:40;;;;;;;1.90;0.73;;;4.30;99.90;;;;;;5064631;28;20057;-72
2021/05/06 01:05:09;;;;;;;3.20;1.48;;;4.20;99.90;;;;;;5064490;28;20033;-75
2021/05/06 01:07:54;;;;;;;3.85;1.15;;;4.20;99.90;;;;;;5063427;28;20048;-72
2021/05/06 01:10:31;;;;;;;2.88;0.70;;;4.20;99.90;;;;;;5062927;28;20021;-72
2021/05/06 01:12:57;;;;;;;7.72;0.73;;;4.10;99.90;;;;;;5062200;28;20017;-69
2021/05/06 01:15:22;;;;;;;0.43;0.38;;;4.10;99.90;;;;;;5063281;28;20029;-72
2021/05/06 01:17:48;;;;;;;11.32;0.75;;;4.10;99.90;;;;;;5064237;28;20043;-70
2021/05/06 01:20:15;;;;;;;7.35;1.42;;;4.10;99.90;;;;;;5064274;28;20025;-70
2021/05/06 01:22:40;;;;;;;8.20;1.10;;;4.10;99.90;;;;;;5062647;28;20108;-74
2021/05/06 01:25:07;;;;;;;3.92;0.98;;;4.00;99.90;;;;;;5063890;28;20052;-75
2021/05/06 01:28:17;;;;;;;4.55;1.38;;;4.00;99.90;;;;;;5062727;28;20028;-74
2021/05/06 01:35:59;;;;;;;4.20;0.85;;;4.00;99.90;;;;;;5064308;28;20045;-72
2021/05/06 01:38:41;;;;;;;2.08;1.08;;;4.00;99.90;;;;;;5063984;28;20041;-73
2021/05/06 01:41:40;;;;;;;9.73;0.93;;;3.90;99.90;;;;;;5064329;28;20051;-73
2021/05/06 01:59:52;;;;;;;4.22;1.20;;;3.80;99.90;;;;;;5064061;28;20494;-72
2021/05/06 02:02:18;;;;;;;2.88;1.50;;;3.80;99.90;;;;;;5062613;28;20120;-72
2021/05/06 02:04:43;;;;;;;0.60;0.60;;;3.80;99.90;;;;;;5064101;28;20029;-70
2021/05/06 02:07:09;;;;;;;2.67;1.10;;;3.80;99.90;;;;;;5062381;28;20545;-73
2021/05/06 02:09:35;;;;;;;1.58;1.15;;;3.90;99.90;;;;;;5062845;28;20036;-74
2021/05/06 02:12:00;;;;;;;3.75;1.10;;;3.60;99.90;;;;;;5064224;28;20075;-72
2021/05/06 02:14:27;;;;;;;2.80;0.90;;;3.70;99.90;;;;;;5062149;28;20036;-72
2021/05/06 02:16:52;;;;;;;1.55;1.08;;;3.70;99.90;;;;;;5063746;28;20052;-72
2021/05/06 02:19:27;;;;;;;2.78;0.85;;;3.70;99.90;;;;;;5063712;28;20026;-73
2021/05/06 02:21:53;;;;;;;2.80;1.55;;;3.70;99.90;;;;;;5062435;28;20116;-71
2021/05/06 02:24:19;;;;;;;3.45;1.40;;;3.70;99.90;;;;;;5064283;28;20029;-75
2021/05/06 02:26:44;;;;;;;5.85;1.10;;;3.70;99.90;;;;;;5065868;28;20029;-72
2021/05/06 02:29:10;;;;;;;9.85;1.73;;;3.70;99.90;;;;;;5067433;28;20387;-74
2021/05/06 02:42:08;;;;;;;5.88;1.40;;;3.60;99.90;;;;;;5027165;28;20145;-73
2021/05/06 02:44:35;;;;;;;2.53;1.30;;;3.50;99.90;;;;;;5027563;28;20502;-74
2021/05/06 02:47:02;;;;;;;8.40;1.50;;;3.60;99.90;;;;;;5027476;28;20057;-75
2021/05/06 02:49:27;;;;;;;6.93;1.73;;;3.60;99.90;;;;;;5026931;28;20030;-73
2021/05/06 02:51:57;;;;;;;3.42;1.48;;;3.60;99.90;;;;;;5027068;28;20038;-75
2021/05/06 02:54:23;;;;;;;2.83;1.45;;;3.60;99.90;;;;;;5027078;28;20101;-74
2021/05/06 02:57:04;;;;;;;2.13;1.10;;;3.60;99.90;;;;;;5026775;28;20038;-74
2021/05/06 03:02:44;;;;;;;6.53;1.70;;;3.60;99.90;;;;;;5027103;28;20025;-75
2021/05/06 03:05:06;;;;;;;4.05;1.45;;;3.50;99.90;;;;;;5027331;28;20041;-75
2021/05/06 03:07:33;;;;;;;2.58;1.80;;;3.50;99.90;;;;;;5025430;28;20030;-74
2021/05/06 03:10:14;;;;;;;3.97;1.40;;;3.50;99.90;;;;;;5026655;28;20048;-73
2021/05/06 03:23:32;;;;;;;3.05;1.23;;;3.50;99.90;;;;;;5018030;28;19929;-75
2021/05/06 03:25:58;;;;;;;10.18;1.55;;;3.50;99.90;;;;;;5026554;28;20034;-73
2021/05/06 03:28:27;;;;;;;7.25;1.15;;;3.50;99.90;;;;;;5026423;28;20034;-74
2021/05/06 03:41:51;;;;;;;7.03;1.65;;;3.60;99.90;;;;;;5063606;28;20060;-74
2021/05/06 04:16:42;;;;;;;10.85;2.08;;;3.70;99.90;;;;;;5065686;28;20040;-75
2021/05/06 04:21:44;;;;;;;5.88;1.42;;;3.70;99.90;;;;;;5065439;28;20032;-74
2021/05/06 04:37:54;;;;;;;7.18;2.70;;;3.70;99.90;;;;;;5064793;28;20067;-75
2021/05/06 04:40:49;;;;;;;3.15;1.73;;;3.70;99.90;;;;;;5063491;28;20049;-74
2021/05/06 04:54:36;;;;;;;6.55;2.50;;;3.80;99.90;;;;;;5023975;28;20037;-74
2021/05/06 05:05:28;;;;;;;3.35;1.67;;;3.90;99.90;;;;;;5086466;28;20032;-74
2021/05/06 05:08:00;;;;;;;6.63;2.40;;;4.00;99.90;;;;;;5084522;28;20020;-76
2021/05/06 05:26:14;;;;;;;3.72;2.38;;;4.40;99.90;;;;;;5079350;28;20040;-71
2021/05/06 05:28:40;;;;;;;8.82;2.53;;;4.50;99.90;;;;;;5079316;28;20025;-74
2021/05/06 05:31:06;;;;;;;3.30;2.10;;;4.50;99.90;;;;;;5063362;28;20119;-73
2021/05/06 05:33:38;;;;;;;11.05;2.15;;;4.60;99.90;;;;;;5063342;28;20021;-79
2021/05/06 05:38:41;;;;;;;11.95;2.40;;;4.60;99.90;;;;;;5064339;28;20044;-77
2021/05/06 05:56:50;;;;;;;3.22;1.40;;;5.10;99.90;;;;;;5084638;28;20029;-78
2021/05/06 05:59:16;;;;;;;6.07;1.95;;;5.00;99.90;;;;;;5083990;28;20446;-77
2021/05/06 06:01:41;;;;;;;4.78;1.80;;;5.10;99.90;;;;;;5073325;28;20025;-77
2021/05/06 06:04:07;;;;;;;3.83;1.85;;;5.10;99.90;;;;;;5085183;28;20028;-76
2021/05/06 06:06:33;;;;;;;5.95;2.15;;;5.10;99.90;;;;;;5088587;28;20028;-78
2021/05/06 06:08:58;;;;;;;4.80;1.70;;;5.20;99.90;;;;;;5086880;28;20048;-75
2021/05/06 06:11:25;;;;;;;3.88;1.52;;;5.30;99.90;;;;;;5087903;28;20090;-75
2021/05/06 06:13:52;;;;;;;4.70;1.88;;;5.40;99.90;;;;;;5088122;28;20029;-77
2021/05/06 06:16:29;;;;;;;3.08;1.73;;;5.40;99.90;;;;;;5087116;28;20032;-77
2021/05/06 06:18:59;;;;;;;4.00;1.05;;;5.50;99.90;;;;;;5087641;28;20036;-75
2021/05/06 06:23:52;;;;;;;10.18;1.92;;;5.80;99.90;;;;;;5087552;28;20025;-78
2021/05/06 06:26:18;;;;;;;1.45;1.13;;;5.70;99.90;;;;;;5087782;28;20059;-76
2021/05/06 06:28:46;;;;;;;4.45;1.98;;;5.80;99.90;;;;;;5086482;28;20024;-75
2021/05/06 06:31:17;;;;;;;3.72;1.73;;;5.90;99.90;;;;;;5081078;28;20227;-75
2021/05/06 06:33:42;;;;;;;4.63;1.90;;;6.00;99.90;;;;;;5082210;28;20052;-73
2021/05/06 06:36:08;;;;;;;2.75;1.08;;;5.90;99.90;;;;;;5087667;28;20033;-74
2021/05/06 06:38:35;;;;;;;3.35;1.88;;;6.10;99.90;;;;;;5086976;28;20036;-74
2021/05/06 06:41:03;;;;;;;4.68;1.77;;;6.10;99.90;;;;;;5087691;28;20052;-75
2021/05/06 06:43:30;;;;;;;6.18;1.80;;;6.20;99.90;;;;;;5087417;28;20020;-74
2021/05/06 06:46:00;;;;;;;3.90;1.52;;;6.20;99.90;;;;;;5087898;28;20071;-74
2021/05/06 06:48:26;;;;;;;5.00;1.88;;;6.30;99.90;;;;;;5086322;28;20035;-75
2021/05/06 06:50:51;;;;;;;1.95;1.45;;;6.30;99.90;;;;;;5087606;28;20028;-75
2021/05/06 06:53:17;;;;;;;2.33;1.40;;;6.50;99.90;;;;;;5085673;28;20021;-74
2021/05/06 06:55:43;;;;;;;4.70;1.90;;;6.40;99.90;;;;;;5087236;28;20032;-76
2021/05/06 06:58:12;;;;;;;3.20;1.38;;;6.50;99.90;;;;;;5086944;28;20036;-75
2021/05/06 07:00:39;;;;;;;4.05;1.85;;;6.60;99.90;;;;;;5085543;28;20028;-73
2021/05/06 07:03:06;;;;;;;9.25;1.88;;;6.60;99.90;;;;;;5086830;28;20051;-77
2021/05/06 07:05:36;;;;;;;4.05;2.33;;;6.70;99.90;;;;;;5087625;28;20366;-76
2021/05/06 07:08:19;;;;;;;4.47;1.60;;;6.70;99.90;;;;;;5087249;28;20036;-76
2021/05/06 07:10:46;;;;;;;4.63;1.77;;;6.80;99.90;;;;;;5085962;28;20025;-76
2021/05/06 07:13:13;;;;;;;2.65;1.70;;;7.00;99.90;;;;;;5085721;28;20032;-76
2021/05/06 07:15:39;;;;;;;2.45;1.20;;;7.10;99.90;;;;;;5085696;28;20028;-76
2021/05/06 07:18:09;;;;;;;3.72;1.38;;;7.20;99.90;;;;;;5085543;28;20082;-76
2021/05/06 07:20:35;;;;;;;7.72;1.73;;;7.30;99.90;;;;;;5085290;28;20583;-76
2021/05/06 07:23:01;;;;;;;3.10;1.75;;;7.40;99.90;;;;;;5085152;28;20036;-74
2021/05/06 07:25:26;;;;;;;4.45;1.83;;;7.50;99.90;;;;;;5086159;28;20508;-77
2021/05/06 07:27:52;;;;;;;7.28;1.27;;;7.50;99.90;;;;;;5084853;28;20029;-75
2021/05/06 07:30:18;;;;;;;3.13;1.67;;;7.50;99.90;;;;;;5084630;28;20039;-71
2021/05/06 07:32:44;;;;;;;5.68;1.27;;;7.60;99.90;;;;;;5086608;28;20052;-73
2021/05/06 07:35:11;;;;;;;3.83;1.33;;;7.50;99.90;;;;;;5085002;28;20031;-72
2021/05/06 07:37:38;;;;;;;5.30;1.95;;;7.60;99.90;;;;;;5085162;28;20100;-73
2021/05/06 07:40:05;;;;;;;2.92;1.25;;;7.70;99.90;;;;;;5084676;28;20064;-74
2021/05/06 07:42:30;;;;;;;11.80;1.42;;;7.70;99.90;;;;;;5086231;28;20096;-76
2021/05/06 07:44:56;;;;;;;10.15;1.58;;;7.90;99.90;;;;;;5086453;28;20328;-75
2021/05/06 07:47:22;;;;;;;4.50;1.40;;;8.00;99.90;;;;;;5086242;28;20027;-73
2021/05/06 07:49:49;;;;;;;2.75;1.30;;;8.10;99.90;;;;;;5085926;28;20058;-72
2021/05/06 07:52:18;;;;;;;4.00;1.67;;;8.10;99.90;;;;;;5086335;28;20036;-73
2021/05/06 07:54:44;;;;;;;3.05;1.67;;;8.10;99.90;;;;;;5086228;28;20035;-76
2021/05/06 07:57:09;;;;;;;2.55;1.50;;;8.20;99.90;;;;;;5085744;28;20044;-74
2021/05/06 07:59:35;;;;;;;5.78;1.05;;;8.30;99.90;;;;;;5084626;28;20096;-76
2021/05/06 08:02:02;;;;;;;3.78;1.15;;;8.40;99.90;;;;;;5084543;28;20082;-75
2021/05/06 08:04:28;;;;;;;2.17;1.67;;;8.60;99.90;;;;;;5085025;28;20025;-77
2021/05/06 08:06:54;;;;;;;2.13;1.10;;;8.80;99.90;;;;;;5075155;28;20047;-73
2021/05/06 08:09:20;;;;;;;2.10;1.23;;;8.90;99.90;;;;;;5065061;28;20080;-74
2021/05/06 08:11:45;;;;;;;5.60;1.50;;;9.00;99.90;;;;;;5065168;28;20036;-77
2021/05/06 08:14:11;;;;;;;2.03;0.93;;;9.10;99.90;;;;;;5064351;28;20029;-77
2021/05/06 08:16:37;;;;;;;2.53;1.05;;;9.20;99.90;;;;;;5065806;28;20017;-73
2021/05/06 08:19:03;;;;;;;4.72;1.23;;;9.30;99.90;;;;;;5065294;28;20040;-76
2021/05/06 08:21:31;;;;;;;3.10;1.05;;;9.30;99.90;;;;;;5065513;28;20025;-77
2021/05/06 08:23:56;;;;;;;2.00;1.13;;;9.20;99.90;;;;;;5065255;28;20021;-75
2021/05/06 08:26:25;;;;;;;7.07;0.93;;;9.10;99.90;;;;;;5063846;28;20070;-76
2021/05/06 08:28:53;;;;;;;1.73;0.88;;;9.20;99.90;;;;;;5065009;28;20063;-76
2021/05/06 08:31:19;;;;;;;7.63;1.17;;;9.30;99.90;;;;;;5065508;28;20061;-75
2021/05/06 08:33:45;;;;;;;8.65;1.55;;;9.40;99.90;;;;;;5063747;28;20093;-74
2021/05/06 08:36:11;;;;;;;0.90;0.80;;;9.30;99.90;;;;;;5061942;28;20025;-75
2021/05/06 08:38:37;;;;;;;1.10;0.75;;;9.30;99.90;;;;;;5064622;28;20065;-75
2021/05/06 08:41:03;;;;;;;7.93;1.40;;;9.50;99.90;;;;;;5063501;28;20057;-76
2021/05/06 08:43:33;;;;;;;3.03;1.30;;;9.50;99.90;;;;;;5064769;28;20029;-78
2021/05/06 08:46:00;;;;;;;2.28;0.95;;;9.70;99.90;;;;;;5064777;28;20385;-74
2021/05/06 08:48:27;;;;;;;1.25;0.65;;;9.70;99.90;;;;;;5063258;28;20028;-76
2021/05/06 08:50:54;;;;;;;3.42;1.10;;;9.60;99.90;;;;;;5064762;28;20028;-75
2021/05/06 08:53:22;;;;;;;12.82;2.65;;;9.50;99.90;;;;;;5067114;28;20474;-75
2021/05/06 08:55:49;;;;;;;1.92;0.98;;;9.60;99.90;;;;;;5074383;28;20025;-76
2021/05/06 08:58:14;;;;;;;3.05;1.05;;;9.90;99.90;;;;;;5062378;28;20056;-74
2021/05/06 09:00:41;;;;;;;0.63;0.50;;;10.00;99.90;;;;;;5063957;28;20131;-79
2021/05/06 09:03:09;;;;;;;2.17;1.38;;;10.20;99.90;;;;;;5062831;28;20025;-76
2021/05/06 09:05:56;;;;;;;1.52;0.77;;;10.30;99.90;;;;;;5064652;28;20458;-76
2021/05/06 09:08:42;;;;;;;1.15;0.60;;;10.20;99.90;;;;;;5064105;28;20033;-77
2021/05/06 09:11:08;;;;;;;0.52;0.38;;;10.00;99.90;;;;;;5064609;28;20109;-78
2021/05/06 09:13:35;;;;;;;1.60;0.70;;;9.80;99.90;;;;;;5064578;28;20048;-77
2021/05/06 09:16:01;;;;;;;1.10;0.60;;;9.60;99.90;;;;;;5072288;28;20024;-78
2021/05/06 09:18:34;;;;;;;0.40;0.40;;;9.60;99.90;;;;;;5083156;28;20504;-77
2021/05/06 09:21:00;;;;;;;3.67;0.80;;;9.70;99.90;;;;;;5084055;28;20036;-74
2021/05/06 09:23:26;;;;;;;5.03;0.90;;;9.60;99.90;;;;;;5084205;28;20120;-75
2021/05/06 09:25:51;;;;;;;5.85;1.05;;;9.90;99.90;;;;;;5083081;28;20369;-76
2021/05/06 09:28:22;;;;;;;0.88;0.60;;;10.00;99.90;;;;;;5082437;28;20058;-75
2021/05/06 09:30:54;;;;;;;2.05;0.90;;;10.10;99.90;;;;;;5084720;28;20043;-75
2021/05/06 09:33:28;;;;;;;2.72;0.32;;;10.10;99.90;;;;;;5083340;28;20024;-76
2021/05/06 09:35:53;;;;;;;;;;;10.10;99.90;;;;;;5070141;28;20033;-76
2021/05/06 09:38:26;;;;;;;1.27;0.88;;;10.40;99.90;;;;;;5068475;28;19912;-75
2021/05/06 09:40:53;;;;;;;4.50;1.00;;;10.80;99.90;;;;;;5066484;28;20045;-74
2021/05/06 09:43:45;;;;;;;0.20;0.20;;;11.10;99.90;;;;;;5068144;28;20047;-76
2021/05/06 09:46:27;;;;;;;2.33;0.50;;;11.40;99.90;;;;;;5064718;28;20063;-78
2021/05/06 09:48:57;;;;;;;7.80;0.80;;;11.60;99.90;;;;;;5066636;28;20029;-75
2021/05/06 09:52:02;;;;;;;4.45;0.68;;;11.80;99.90;;;;;;5068357;28;20568;-76
2021/05/06 09:54:30;;;;;;;3.60;0.80;;;11.90;99.90;;;;;;4986918;28;20091;-75
2021/05/06 09:56:57;;;;;;;0.98;0.60;;;12.10;99.90;;;;;;4970344;28;20060;-76
2021/05/06 09:59:25;;;;;;;0.98;0.60;;;12.30;99.90;;;;;;5026736;28;20045;-73
2021/05/06 10:01:51;;;;;;;1.10;0.52;;;12.50;99.90;;;;;;5068015;28;20385;-74
2021/05/06 10:04:18;;;;;;;2.55;0.80;;;12.50;99.90;;;;;;5067601;28;20102;-71
2021/05/06 10:07:04;;;;;;;5.43;1.08;;;12.40;99.90;;;;;;5074688;28;20033;-74
2021/05/06 10:09:33;;;;;;;1.40;0.63;;;12.40;99.90;;;;;;5075794;28;20501;-77
2021/05/06 10:12:00;;;;;;;0.57;0.35;;;12.40;99.90;;;;;;5085061;28;20036;-77
2021/05/06 10:14:26;;;;;;;0.22;0.20;;;12.40;99.90;;;;;;5072795;28;20067;-76
2021/05/06 10:16:52;;;;;;;1.40;0.47;;;12.30;99.90;;;;;;5084491;28;20481;-76
2021/05/06 10:19:19;;;;;;;0.65;0.25;;;12.40;99.90;;;;;;5082093;28;20052;-76
2021/05/06 10:21:46;;;;;;;0.95;0.50;;;12.70;99.90;;;;;;5066826;28;20041;-77
2021/05/06 10:24:16;;;;;;;0.50;0.50;;;13.00;99.90;;;;;;5063441;28;20040;-79
2021/05/06 10:26:45;;;;;;;1.13;0.60;;;13.20;99.90;;;;;;5066969;28;20040;-75
2021/05/06 10:29:13;;;;;;;0.85;0.30;;;13.50;99.90;;;;;;5067001;28;20131;-75
2021/05/06 10:31:40;;;;;;;0.90;0.25;;;13.70;99.90;;;;;;5065954;28;20036;-75
2021/05/06 10:34:08;;;;;;;0.43;0.30;;;13.70;99.90;;;;;;5066335;28;20028;-74
2021/05/06 10:36:34;;;;;;;1.15;0.40;;;13.80;99.90;;;;;;5066112;28;20025;-76
2021/05/06 10:39:01;;;;;;;0.47;0.15;;;13.40;99.90;;;;;;5083644;28;20044;-75
2021/05/06 10:41:29;;;;;;;1.50;0.68;;;13.40;99.90;;;;;;5066788;28;20049;-78
2021/05/06 10:43:59;;;;;;;0.98;0.30;;;13.50;99.90;;;;;;5081526;28;20024;-74
2021/05/06 10:47:06;;;;;;;2.88;0.63;;;13.90;99.90;;;;;;5086664;28;20024;-75
2021/05/06 10:49:38;;;;;;;0.93;0.40;;;14.00;99.90;;;;;;5008777;28;20033;-76
2021/05/06 10:52:05;;;;;;;1.77;0.60;;;13.60;98.30;;;;;;5024603;28;20033;-76
2021/05/06 10:54:40;;;;;;;0.68;0.28;;;13.20;99.90;;;;;;5058071;28;20047;-77
2021/05/06 10:57:11;;;;;;;1.08;0.52;;;13.50;99.90;;;;;;5087323;28;20195;-77
2021/05/06 10:59:42;;;;;;;2.53;0.85;;;13.80;99.90;;;;;;5086005;28;20024;-77
2021/05/06 11:02:10;;;;;;;0.45;0.35;;;14.20;99.90;;;;;;5085676;28;20025;-75
2021/05/06 11:04:40;;;;;;;3.78;0.57;;;14.30;97.10;;;;;;5087000;28;20013;-79
2021/05/06 11:07:10;;;;;;;4.72;0.93;;;13.90;95.30;;;;;;5085535;28;20058;-77
2021/05/06 11:09:36;;;;;;;1.10;0.55;;;14.00;99.90;;;;;;5087156;28;20055;-80
2021/05/06 11:12:28;;;;;;;2.53;0.60;;;14.00;97.50;;;;;;5085657;28;20028;-78
2021/05/06 11:15:02;;;;;;;0.20;0.10;;;13.80;98.90;;;;;;5086675;28;20399;-76
2021/05/06 11:17:37;;;;;;;1.25;0.40;;;13.90;95.80;;;;;;5085269;28;20123;-80
2021/05/06 11:20:12;;;;;;;0.98;0.45;;;14.00;93.80;;;;;;5086424;28;20032;-77
2021/05/06 11:22:45;;;;;;;0.15;0.10;;;13.70;92.50;;;;;;5084822;28;20493;-75
2021/05/06 11:25:38;;;;;;;0.13;0.13;;;13.80;99.90;;;;;;5072463;28;20021;-79
2021/05/06 11:28:29;;;;;;;1.35;0.70;;;13.50;95.80;;;;;;5064956;28;20045;-77
2021/05/06 11:30:56;;;;;;;0.63;0.43;;;13.30;96.20;;;;;;5067712;28;20044;-79
2021/05/06 11:33:21;;;;;;;0.35;0.25;;;13.20;97.40;;;;;;5065818;28;20025;-77
2021/05/06 11:35:56;;;;;;;0.43;0.28;;;12.80;93.60;;;;;;5086148;28;20051;-78
2021/05/06 11:38:22;;;;;;;;;;;12.50;93.20;;;;;;5084537;28;20048;-74
2021/05/06 11:40:48;;;;;;;0.40;0.32;;;12.20;92.40;;;;;;5083272;28;19916;-76
2021/05/06 11:43:23;;;;;;;0.68;0.50;;;12.20;93.40;;;;;;5085328;28;20181;-74
2021/05/06 11:45:49;;;;;;;3.08;0.70;;;12.10;95.70;;;;;;5086029;28;20545;-75
2021/05/06 11:48:16;;;;;;;0.38;0.20;;;11.90;95.30;;;;;;5084517;28;20052;-71
2021/05/06 11:50:45;;;;;;;7.22;0.93;;;11.70;96.70;;;;;;5085796;28;20104;-78
2021/05/06 11:53:18;;;;;;;3.40;0.90;;;11.40;96.60;;;;;;5084589;28;20044;-76
2021/05/06 11:55:44;;;;;;;2.42;0.47;;;11.70;99.90;;;;;;5085432;28;20028;-76
2021/05/06 11:58:11;;;;;;;1.88;0.73;;;12.40;99.90;;;;;;5085383;28;20064;-77
2021/05/06 12:00:39;;;;;;;0.45;0.40;;;13.20;99.90;;;;;;5084441;28;20040;-74
2021/05/06 12:03:10;;;;;;;0.98;0.52;;;13.40;99.40;;;;;;5084319;28;20039;-77
2021/05/06 12:05:58;;;;;;;1.40;0.40;;;13.30;99.90;;;;;;5085794;28;20025;-80
2021/05/06 12:08:27;;;;;;;1.25;0.70;;;13.30;98.30;;;;;;5084123;28;20519;-77
2021/05/06 12:10:54;;;;;;;1.02;0.35;;;13.40;99.90;;;;;;5085481;28;20094;-78
2021/05/06 12:13:35;;;;;;;0.63;0.32;;;13.90;92.70;;;;;;5084034;28;20039;-77
2021/05/06 12:16:11;;;;;;;0.43;0.30;;;14.50;95.70;;;;;;5076465;28;20052;-75
2021/05/06 12:18:37;;;;;;;1.20;0.68;;;15.10;92.80;;;;;;5081213;28;20086;-80
2021/05/06 12:21:06;;;;;;;0.90;0.45;;;15.30;96.40;;;;;;5077545;28;20029;-78
2021/05/06 12:23:33;;;;;;;0.32;0.28;;;15.40;90.80;;;;;;5067895;28;20116;-78
2021/05/06 12:26:00;;;;;;;1.15;0.38;;;15.60;93.70;;;;;;5073368;28;20386;-75
2021/05/06 12:28:26;;;;;;;0.75;0.17;;;15.60;91.70;;;;;;5080210;28;20036;-75
2021/05/06 12:31:00;;;;;;;1.98;0.65;;;15.60;88.70;;;;;;5063928;28;20493;-74
2021/05/06 12:33:33;;;;;;;0.47;0.30;;;15.40;78.60;;;;;;5064892;28;20040;-75
2021/05/06 12:35:59;;;;;;;3.08;0.40;;;15.20;85.80;;;;;;5070240;28;20035;-75
2021/05/06 12:38:26;;;;;;;0.90;0.50;;;15.00;81.50;;;;;;5080775;28;20032;-79
2021/05/06 12:40:53;;;;;;;0.50;0.32;;;15.00;84.40;;;;;;5063750;28;20516;-77
2021/05/06 12:43:30;;;;;;;3.33;0.98;;;15.20;94.30;;;;;;5073947;28;20044;-76
2021/05/06 12:46:10;;;;;;;13.20;0.90;;;15.20;92.80;;;;;;5085467;28;20069;-75
2021/05/06 12:48:36;;;;;;;0.28;0.20;;;15.10;92.10;;;;;;5066854;28;20060;-74
2021/05/06 12:51:04;;;;;;;1.45;0.30;;;15.30;92.40;;;;;;5084784;28;20059;-76
2021/05/06 12:53:30;;;;;;;0.60;0.47;;;15.40;93.10;;;;;;5081273;28;20028;-77
2021/05/06 12:55:55;;;;;;;1.33;0.52;;;15.60;92.70;;;;;;5084093;28;20024;-78
2021/05/06 12:58:27;;;;;;;1.65;0.70;;;16.00;94.20;;;;;;5084760;28;20040;-76
2021/05/06 13:00:56;;;;;;;0.82;0.40;;;16.10;90.00;;;;;;5085039;28;20088;-76
2021/05/06 13:03:38;;;;;;;0.80;0.45;;;16.10;92.70;;;;;;5084627;28;20029;-73
2021/05/06 13:06:17;;;;;;;1.05;0.52;;;16.00;90.00;;;;;;5085147;28;20092;-76
2021/05/06 13:08:45;;;;;;;2.53;0.95;;;15.60;91.60;;;;;;5082541;28;20039;-75
2021/05/06 13:11:18;;;;;;;1.65;0.40;;;15.30;91.40;;;;;;5084958;28;20020;-75
2021/05/06 13:13:49;;;;;;;0.73;0.40;;;15.00;91.10;;;;;;5084134;28;20028;-78
2021/05/06 13:16:17;;;;;;;2.47;0.75;;;14.60;91.70;;;;;;5083812;28;20032;-75
2021/05/06 13:19:05;;;;;;;1.15;0.60;;;14.20;95.20;;;;;;5084692;28;20040;-76
2021/05/06 13:21:32;;;;;;;1.40;0.57;;;14.00;95.40;;;;;;5084999;28;20029;-76
2021/05/06 13:23:58;;;;;;;1.40;0.70;;;13.90;97.60;;;;;;5083503;28;20044;-78
2021/05/06 13:26:41;;;;;;;0.40;0.40;;;13.60;96.60;;;;;;5084616;28;20063;-74
2021/05/06 13:29:14;;;;;;;1.35;0.57;;;13.50;99.40;;;;;;5083384;28;20024;-75
2021/05/06 13:31:45;;;;;;;1.48;0.68;;;13.50;99.90;;;;;;5083338;28;20029;-75
2021/05/06 13:34:22;;;;;;;0.35;0.28;;;13.20;99.90;;;;;;5084585;28;20123;-74
2021/05/06 13:37:07;;;;;;;2.80;0.52;;;13.00;99.90;;;;;;5083249;28;20040;-77
2021/05/06 13:39:34;;;;;;;0.68;0.38;;;12.60;97.20;;;;;;5084274;28;20032;-77
2021/05/06 13:42:00;;;;;;;5.95;0.77;;;12.50;99.90;;;;;;5082812;28;20057;-75
2021/05/06 13:44:28;;;;;;;0.43;0.30;;;12.60;99.90;;;;;;5084671;28;20120;-75
2021/05/06 13:46:56;;;;;;;0.55;0.25;;;12.60;99.60;;;;;;5082657;28;20093;-77
2021/05/06 13:49:23;;;;;;;0.43;0.30;;;12.60;99.40;;;;;;5084583;28;20469;-75
2021/05/06 13:51:51;;;;;;;0.30;0.20;;;12.60;98.20;;;;;;5082916;28;20025;-74
2021/05/06 13:54:18;;;;;;;1.55;0.32;;;12.50;97.80;;;;;;5083941;28;20029;-75
2021/05/06 13:56:44;;;;;;;1.63;0.50;;;12.30;98.30;;;;;;5082757;28;20028;-75
2021/05/06 13:59:11;;;;;;;0.32;0.25;;;12.20;98.20;;;;;;5065742;28;20037;-77
2021/05/06 14:01:37;;;;;;;0.57;0.50;;;12.00;98.20;;;;;;5063913;28;20055;-76
2021/05/06 14:04:04;;;;;;;1.05;0.40;;;12.00;96.90;;;;;;5062879;28;20037;-74
2021/05/06 14:06:30;;;;;;;1.05;0.30;;;11.80;97.60;;;;;;5063955;28;20529;-75
2021/05/06 14:08:56;;;;;;;1.55;0.43;;;11.80;97.60;;;;;;5062527;28;20044;-75
2021/05/06 14:11:25;;;;;;;0.68;0.32;;;11.70;97.80;;;;;;5062738;28;20029;-76
2021/05/06 14:13:51;;;;;;;0.47;0.30;;;11.70;98.70;;;;;;5063497;28;20103;-77
2021/05/06 14:16:17;;;;;;;2.20;0.75;;;11.70;99.90;;;;;;5062411;28;20071;-76
2021/05/06 14:18:42;;;;;;;3.70;0.60;;;11.70;99.90;;;;;;5063742;28;20045;-76
2021/05/06 14:21:10;;;;;;;3.92;1.17;;;11.60;99.60;;;;;;5071203;28;20024;-76
2021/05/06 14:23:40;;;;;;;0.95;0.50;;;11.50;99.90;;;;;;5080025;28;20025;-78
2021/05/06 14:26:07;;;;;;;0.77;0.70;;;11.50;99.90;;;;;;5073245;28;20045;-75
2021/05/06 14:28:33;;;;;;;0.77;0.52;;;11.60;99.90;;;;;;5069623;28;20040;-75
2021/05/06 14:30:58;;;;;;;0.52;0.45;;;11.90;99.90;;;;;;5072376;28;20033;-76
2021/05/06 14:33:25;;;;;;;1.67;0.70;;;12.20;99.90;;;;;;5076330;28;20033;-73
2021/05/06 14:35:50;;;;;;;0.90;0.45;;;12.50;99.90;;;;;;5084180;28;20024;-75
2021/05/06 14:38:16;;;;;;;1.25;0.50;;;12.90;99.90;;;;;;5080303;28;20046;-74
2021/05/06 14:40:42;;;;;;;2.10;0.65;;;13.00;99.90;;;;;;5085566;28;20044;-77
2021/05/06 14:43:09;;;;;;;1.40;0.68;;;12.90;99.90;;;;;;5086650;28;20104;-76
2021/05/06 14:45:35;;;;;;;1.83;0.55;;;13.10;99.90;;;;;;5088308;28;20032;-75
2021/05/06 14:48:02;;;;;;;0.95;0.60;;;13.40;98.40;;;;;;5087212;28;20037;-74
2021/05/06 14:50:29;;;;;;;2.40;0.50;;;13.40;98.80;;;;;;5088574;28;20098;-74
2021/05/06 14:52:55;;;;;;;4.22;0.80;;;13.20;97.00;;;;;;5089939;28;20036;-74
2021/05/06 14:55:22;;;;;;;1.00;0.73;;;13.00;94.80;;;;;;5086210;28;20471;-75
2021/05/06 14:57:49;;;;;;;1.38;0.65;;;12.80;98.20;;;;;;5087615;28;20036;-77
2021/05/06 15:00:16;;;;;;;0.65;0.52;;;12.60;97.10;;;;;;5086423;28;20028;-74
2021/05/06 15:02:42;;;;;;;0.73;0.38;;;12.40;96.70;;;;;;5087228;28;20029;-74
2021/05/06 15:05:09;;;;;;;7.15;0.70;;;12.30;98.50;;;;;;5087424;28;20029;-76
2021/05/06 15:07:36;;;;;;;1.20;0.47;;;12.20;99.90;;;;;;5085607;28;20063;-73
2021/05/06 15:10:04;;;;;;;1.20;0.70;;;12.10;98.80;;;;;;5087557;28;20029;-74
2021/05/06 15:12:32;;;;;;;1.75;0.77;;;12.10;99.90;;;;;;5087554;28;20028;-74
2021/05/06 15:14:58;;;;;;;1.70;0.98;;;12.00;99.80;;;;;;5086883;28;20028;-73
2021/05/06 15:17:23;;;;;;;1.15;0.52;;;12.10;99.90;;;;;;5086799;28;20111;-76
2021/05/06 15:19:49;;;;;;;1.23;0.88;;;12.10;99.90;;;;;;5087026;28;20016;-74
2021/05/06 15:22:15;;;;;;;0.98;0.57;;;12.30;99.90;;;;;;5088096;28;20025;-75
2021/05/06 15:24:42;;;;;;;2.65;0.90;;;12.40;99.90;;;;;;5087056;28;20056;-74
2021/05/06 15:27:08;;;;;;;2.55;1.25;;;12.70;99.40;;;;;;5086703;28;20029;-75
2021/05/06 15:29:33;;;;;;;2.92;0.95;;;13.30;99.70;;;;;;5085348;28;20034;-75
2021/05/06 15:31:59;;;;;;;1.83;1.05;;;13.80;99.20;;;;;;5083874;28;20025;-75
2021/05/06 15:34:25;;;;;;;0.93;0.60;;;14.10;96.50;;;;;;5085075;28;20031;-73
2021/05/06 15:36:50;;;;;;;0.63;0.50;;;14.20;96.30;;;;;;5086380;28;20112;-75
2021/05/06 15:39:16;;;;;;;0.90;0.68;;;14.40;99.40;;;;;;5084313;28;20040;-74
2021/05/06 15:41:41;;;;;;;0.52;0.30;;;14.40;98.60;;;;;;5085676;28;20123;-77
2021/05/06 15:44:07;;;;;;;0.90;0.60;;;14.20;97.40;;;;;;5084560;28;20048;-75
2021/05/06 15:46:35;;;;;;;2.08;0.90;;;14.10;97.40;;;;;;5082023;28;20041;-74
2021/05/06 15:49:02;;;;;;;1.80;1.05;;;14.00;97.50;;;;;;5062467;28;20029;-73
2021/05/06 15:51:29;;;;;;;0.93;0.60;;;13.80;99.00;;;;;;5067150;28;20041;-75
2021/05/06 15:53:56;;;;;;;4.53;1.23;;;13.70;99.40;;;;;;5079170;28;20127;-75
2021/05/06 15:56:22;;;;;;;2.38;0.73;;;13.70;99.90;;;;;;5074505;28;20028;-74
2021/05/06 15:58:49;;;;;;;0.75;0.65;;;13.60;99.60;;;;;;5083815;28;20040;-73
2021/05/06 16:01:16;;;;;;;1.15;0.65;;;13.50;99.90;;;;;;5073074;28;20063;-72
2021/05/06 16:03:47;;;;;;;1.40;0.80;;;13.50;99.80;;;;;;5082490;28;20096;-76
2021/05/06 16:06:13;;;;;;;4.07;1.02;;;13.30;99.60;;;;;;5085705;28;20025;-75
2021/05/06 16:08:39;;;;;;;1.33;0.77;;;13.30;97.90;;;;;;5084371;28;20028;-75
2021/05/06 16:11:05;;;;;;;1.15;0.98;;;13.20;99.70;;;;;;5083951;28;20036;-75
2021/05/06 16:13:30;;;;;;;2.40;1.52;;;13.20;99.90;;;;;;5085094;28;20033;-75
2021/05/06 16:15:56;;;;;;;2.33;0.98;;;13.20;99.90;;;;;;5085616;28;20039;-75
2021/05/06 16:18:23;;;;;;;1.90;1.17;;;13.20;99.90;;;;;;5085013;28;20048;-75
2021/05/06 16:20:50;;;;;;;4.00;2.90;;;13.20;99.90;;;;;;5084004;28;20028;-74
2021/05/06 16:23:15;;;;;;;0.90;0.70;;;13.30;99.90;;;;;;5085040;28;20020;-74
2021/05/06 16:25:41;;;;;;;0.88;0.50;;;13.50;99.90;;;;;;5084924;28;20061;-75
2021/05/06 16:28:09;;;;;;;2.08;0.70;;;13.80;99.90;;;;;;5085226;28;20024;-74
2021/05/06 16:30:37;;;;;;;0.75;0.47;;;14.10;99.80;;;;;;5085342;28;20021;-75
2021/05/06 16:33:06;;;;;;;1.23;0.80;;;14.00;98.60;;;;;;5083819;28;20021;-73